sensor_id;sensor_type;location;lat;lon;timestamp;P1;durP1;ratioP1;P2;durP2;ratioP2
44508;SDS011;30214;52.246;14.408;2022-12-29T00:01:49;3.47;;;1.67;;
44508;SDS011;30214;52.246;14.408;2022-12-29T00:04:17;3.88;;;1.80;;
44508;SDS011;30214;52.246;14.408;2022-12-29T00:06:51;5.20;;;1.90;;
44508;SDS011;30214;52.246;14.408;2022-12-29T00:09:19;3.28;;;1.52;;
44508;SDS011;30214;52.246;14.408;2022-12-29T00:11:48;3.60;;;2.00;;
44508;SDS011;30214;52.246;14.408;2022-12-29T00:14:16;6.20;;;2.20;;
44508;SDS011;30214;52.246;14.408;2022-12-29T00:17:03;4.25;;;1.92;;
44508;SDS011;30214;52.246;14.408;2022-12-29T00:19:30;2.95;;;1.60;;
44508;SDS011;30214;52.246;14.408;2022-12-29T00:24:59;4.15;;;1.90;;
44508;SDS011;30214;52.246;14.408;2022-12-29T00:28:00;3.35;;;1.80;;
44508;SDS011;30214;52.246;14.408;2022-12-29T00:30:45;4.30;;;2.20;;
44508;SDS011;30214;52.246;14.408;2022-12-29T00:33:32;5.47;;;2.00;;
44508;SDS011;30214;52.246;14.408;2022-12-29T00:36:18;3.75;;;2.20;;
44508;SDS011;30214;52.246;14.408;2022-12-29T00:38:49;5.20;;;1.92;;
44508;SDS011;30214;52.246;14.408;2022-12-29T00:41:39;4.68;;;2.10;;
44508;SDS011;30214;52.246;14.408;2022-12-29T00:44:24;4.55;;;2.00;;
44508;SDS011;30214;52.246;14.408;2022-12-29T00:46:52;4.50;;;2.00;;
44508;SDS011;30214;52.246;14.408;2022-12-29T00:49:29;4.63;;;2.17;;
44508;SDS011;30214;52.246;14.408;2022-12-29T00:51:57;5.65;;;2.10;;
44508;SDS011;30214;52.246;14.408;2022-12-29T00:54:29;4.95;;;2.30;;
44508;SDS011;30214;52.246;14.408;2022-12-29T00:56:59;3.97;;;2.30;;
44508;SDS011;30214;52.246;14.408;2022-12-29T00:59:28;3.85;;;1.85;;
44508;SDS011;30214;52.246;14.408;2022-12-29T01:01:56;4.35;;;2.00;;
44508;SDS011;30214;52.246;14.408;2022-12-29T01:04:24;2.90;;;1.70;;
44508;SDS011;30214;52.246;14.408;2022-12-29T01:06:57;4.07;;;2.00;;
44508;SDS011;30214;52.246;14.408;2022-12-29T01:09:25;6.32;;;2.20;;
44508;SDS011;30214;52.246;14.408;2022-12-29T01:15:49;3.78;;;1.90;;
44508;SDS011;30214;52.246;14.408;2022-12-29T01:18:28;4.68;;;1.63;;
44508;SDS011;30214;52.246;14.408;2022-12-29T01:21:00;3.53;;;1.80;;
44508;SDS011;30214;52.246;14.408;2022-12-29T01:23:35;4.20;;;2.10;;
44508;SDS011;30214;52.246;14.408;2022-12-29T01:26:08;4.25;;;2.10;;
44508;SDS011;30214;52.246;14.408;2022-12-29T01:28:51;3.75;;;1.90;;
44508;SDS011;30214;52.246;14.408;2022-12-29T01:31:24;3.58;;;1.77;;
44508;SDS011;30214;52.246;14.408;2022-12-29T01:33:52;5.07;;;2.00;;
44508;SDS011;30214;52.246;14.408;2022-12-29T01:36:38;2.85;;;1.77;;
44508;SDS011;30214;52.246;14.408;2022-12-29T01:39:09;4.50;;;2.03;;
44508;SDS011;30214;52.246;14.408;2022-12-29T01:41:46;4.13;;;1.98;;
44508;SDS011;30214;52.246;14.408;2022-12-29T01:47:18;3.92;;;2.30;;
44508;SDS011;30214;52.246;14.408;2022-12-29T01:50:14;5.00;;;2.40;;
44508;SDS011;30214;52.246;14.408;2022-12-29T01:52:50;3.95;;;1.80;;
44508;SDS011;30214;52.246;14.408;2022-12-29T01:59:12;3.50;;;1.75;;
44508;SDS011;30214;52.246;14.408;2022-12-29T02:01:47;4.60;;;2.00;;
44508;SDS011;30214;52.246;14.408;2022-12-29T02:04:16;5.07;;;1.70;;
44508;SDS011;30214;52.246;14.408;2022-12-29T02:06:45;3.92;;;1.70;;
44508;SDS011;30214;52.246;14.408;2022-12-29T02:09:18;3.35;;;1.90;;
44508;SDS011;30214;52.246;14.408;2022-12-29T02:11:50;4.68;;;2.08;;
44508;SDS011;30214;52.246;14.408;2022-12-29T02:14:18;4.30;;;1.80;;
44508;SDS011;30214;52.246;14.408;2022-12-29T02:16:51;3.90;;;1.60;;
44508;SDS011;30214;52.246;14.408;2022-12-29T02:23:17;3.40;;;1.67;;
44508;SDS011;30214;52.246;14.408;2022-12-29T02:26:28;4.50;;;1.83;;
44508;SDS011;30214;52.246;14.408;2022-12-29T02:29:17;3.40;;;1.80;;
44508;SDS011;30214;52.246;14.408;2022-12-29T02:32:09;2.92;;;1.55;;
44508;SDS011;30214;52.246;14.408;2022-12-29T02:34:46;3.67;;;1.60;;
44508;SDS011;30214;52.246;14.408;2022-12-29T02:37:22;4.75;;;1.67;;
44508;SDS011;30214;52.246;14.408;2022-12-29T02:39:59;2.50;;;1.50;;
44508;SDS011;30214;52.246;14.408;2022-12-29T02:42:39;4.15;;;1.70;;
44508;SDS011;30214;52.246;14.408;2022-12-29T02:45:15;4.07;;;1.70;;
44508;SDS011;30214;52.246;14.408;2022-12-29T02:47:51;3.75;;;1.63;;
44508;SDS011;30214;52.246;14.408;2022-12-29T02:50:28;3.35;;;1.90;;
44508;SDS011;30214;52.246;14.408;2022-12-29T02:55:33;3.78;;;1.58;;
44508;SDS011;30214;52.246;14.408;2022-12-29T03:00:55;3.05;;;1.67;;
44508;SDS011;30214;52.246;14.408;2022-12-29T03:03:41;4.40;;;1.75;;
44508;SDS011;30214;52.246;14.408;2022-12-29T03:06:25;4.20;;;1.90;;
44508;SDS011;30214;52.246;14.408;2022-12-29T03:09:02;3.63;;;1.80;;
44508;SDS011;30214;52.246;14.408;2022-12-29T03:11:41;4.55;;;1.73;;
44508;SDS011;30214;52.246;14.408;2022-12-29T03:14:37;2.83;;;1.67;;
44508;SDS011;30214;52.246;14.408;2022-12-29T03:17:36;3.08;;;1.38;;
44508;SDS011;30214;52.246;14.408;2022-12-29T03:20:18;3.42;;;1.50;;
44508;SDS011;30214;52.246;14.408;2022-12-29T03:22:54;5.80;;;1.60;;
44508;SDS011;30214;52.246;14.408;2022-12-29T03:25:30;3.42;;;1.52;;
44508;SDS011;30214;52.246;14.408;2022-12-29T03:28:03;2.50;;;1.48;;
44508;SDS011;30214;52.246;14.408;2022-12-29T03:30:40;3.45;;;1.83;;
44508;SDS011;30214;52.246;14.408;2022-12-29T03:33:12;4.68;;;1.40;;
44508;SDS011;30214;52.246;14.408;2022-12-29T03:35:44;3.00;;;1.58;;
44508;SDS011;30214;52.246;14.408;2022-12-29T03:38:13;3.80;;;1.60;;
44508;SDS011;30214;52.246;14.408;2022-12-29T03:40:45;3.60;;;1.45;;
44508;SDS011;30214;52.246;14.408;2022-12-29T03:43:17;4.38;;;1.45;;
44508;SDS011;30214;52.246;14.408;2022-12-29T03:45:46;4.07;;;1.55;;
44508;SDS011;30214;52.246;14.408;2022-12-29T03:48:13;3.63;;;1.50;;
44508;SDS011;30214;52.246;14.408;2022-12-29T03:50:43;4.20;;;1.65;;
44508;SDS011;30214;52.246;14.408;2022-12-29T03:53:10;3.45;;;1.35;;
44508;SDS011;30214;52.246;14.408;2022-12-29T03:55:38;5.30;;;1.50;;
44508;SDS011;30214;52.246;14.408;2022-12-29T03:58:06;4.47;;;1.88;;
44508;SDS011;30214;52.246;14.408;2022-12-29T04:00:52;3.42;;;1.40;;
44508;SDS011;30214;52.246;14.408;2022-12-29T04:03:19;2.20;;;1.17;;
44508;SDS011;30214;52.246;14.408;2022-12-29T04:05:47;2.95;;;1.58;;
44508;SDS011;30214;52.246;14.408;2022-12-29T04:08:15;3.13;;;1.42;;
44508;SDS011;30214;52.246;14.408;2022-12-29T04:10:42;2.72;;;1.40;;
44508;SDS011;30214;52.246;14.408;2022-12-29T04:13:11;4.10;;;1.60;;
44508;SDS011;30214;52.246;14.408;2022-12-29T04:15:39;3.70;;;1.63;;
44508;SDS011;30214;52.246;14.408;2022-12-29T04:18:07;2.90;;;1.55;;
44508;SDS011;30214;52.246;14.408;2022-12-29T04:20:34;4.47;;;2.15;;
44508;SDS011;30214;52.246;14.408;2022-12-29T04:23:20;4.55;;;1.35;;
44508;SDS011;30214;52.246;14.408;2022-12-29T04:25:48;2.90;;;1.45;;
44508;SDS011;30214;52.246;14.408;2022-12-29T04:28:15;4.10;;;1.50;;
44508;SDS011;30214;52.246;14.408;2022-12-29T04:30:51;4.18;;;1.38;;
44508;SDS011;30214;52.246;14.408;2022-12-29T04:33:22;2.17;;;1.33;;
44508;SDS011;30214;52.246;14.408;2022-12-29T04:35:50;5.15;;;1.90;;
44508;SDS011;30214;52.246;14.408;2022-12-29T04:38:20;2.47;;;1.45;;
44508;SDS011;30214;52.246;14.408;2022-12-29T04:40:50;3.65;;;1.40;;
44508;SDS011;30214;52.246;14.408;2022-12-29T04:43:21;2.53;;;1.50;;
44508;SDS011;30214;52.246;14.408;2022-12-29T04:46:13;2.92;;;1.40;;
44508;SDS011;30214;52.246;14.408;2022-12-29T04:48:57;2.55;;;1.40;;
44508;SDS011;30214;52.246;14.408;2022-12-29T04:51:47;2.45;;;1.40;;
44508;SDS011;30214;52.246;14.408;2022-12-29T04:54:17;3.88;;;1.50;;
44508;SDS011;30214;52.246;14.408;2022-12-29T04:56:53;3.08;;;1.30;;
44508;SDS011;30214;52.246;14.408;2022-12-29T04:59:20;2.63;;;1.25;;
44508;SDS011;30214;52.246;14.408;2022-12-29T05:01:52;3.20;;;1.45;;
44508;SDS011;30214;52.246;14.408;2022-12-29T05:04:19;2.25;;;1.40;;
44508;SDS011;30214;52.246;14.408;2022-12-29T05:06:47;5.07;;;1.60;;
44508;SDS011;30214;52.246;14.408;2022-12-29T05:09:17;3.08;;;1.35;;
44508;SDS011;30214;52.246;14.408;2022-12-29T05:11:45;3.97;;;1.35;;
44508;SDS011;30214;52.246;14.408;2022-12-29T05:14:13;4.82;;;1.50;;
44508;SDS011;30214;52.246;14.408;2022-12-29T05:16:42;3.15;;;1.35;;
44508;SDS011;30214;52.246;14.408;2022-12-29T05:19:10;3.33;;;1.58;;
44508;SDS011;30214;52.246;14.408;2022-12-29T05:21:38;3.20;;;1.75;;
44508;SDS011;30214;52.246;14.408;2022-12-29T05:24:07;7.15;;;2.47;;
44508;SDS011;30214;52.246;14.408;2022-12-29T05:26:35;4.95;;;1.80;;
44508;SDS011;30214;52.246;14.408;2022-12-29T05:29:28;4.25;;;1.80;;
44508;SDS011;30214;52.246;14.408;2022-12-29T05:31:56;5.70;;;2.50;;
44508;SDS011;30214;52.246;14.408;2022-12-29T05:34:24;4.00;;;2.17;;
44508;SDS011;30214;52.246;14.408;2022-12-29T05:36:51;4.28;;;1.80;;
44508;SDS011;30214;52.246;14.408;2022-12-29T05:39:18;4.63;;;2.00;;
44508;SDS011;30214;52.246;14.408;2022-12-29T05:41:53;4.57;;;1.67;;
44508;SDS011;30214;52.246;14.408;2022-12-29T05:44:55;3.55;;;1.73;;
44508;SDS011;30214;52.246;14.408;2022-12-29T05:47:42;5.30;;;2.00;;
44508;SDS011;30214;52.246;14.408;2022-12-29T05:50:24;3.85;;;1.80;;
44508;SDS011;30214;52.246;14.408;2022-12-29T05:53:09;3.03;;;1.35;;
44508;SDS011;30214;52.246;14.408;2022-12-29T05:55:38;2.83;;;1.50;;
44508;SDS011;30214;52.246;14.408;2022-12-29T05:58:06;3.15;;;1.85;;
44508;SDS011;30214;52.246;14.408;2022-12-29T06:00:33;3.88;;;1.63;;
44508;SDS011;30214;52.246;14.408;2022-12-29T06:03:03;3.85;;;1.90;;
44508;SDS011;30214;52.246;14.408;2022-12-29T06:05:31;3.60;;;1.50;;
44508;SDS011;30214;52.246;14.408;2022-12-29T06:07:58;3.97;;;1.88;;
44508;SDS011;30214;52.246;14.408;2022-12-29T06:10:26;3.88;;;1.85;;
44508;SDS011;30214;52.246;14.408;2022-12-29T06:13:01;3.58;;;1.70;;
44508;SDS011;30214;52.246;14.408;2022-12-29T06:15:31;3.78;;;1.70;;
44508;SDS011;30214;52.246;14.408;2022-12-29T06:17:59;3.42;;;1.75;;
44508;SDS011;30214;52.246;14.408;2022-12-29T06:20:26;3.85;;;1.75;;
44508;SDS011;30214;52.246;14.408;2022-12-29T06:22:53;4.43;;;2.13;;
44508;SDS011;30214;52.246;14.408;2022-12-29T06:25:21;7.65;;;2.63;;
44508;SDS011;30214;52.246;14.408;2022-12-29T06:27:48;5.10;;;2.05;;
44508;SDS011;30214;52.246;14.408;2022-12-29T06:30:15;6.95;;;3.10;;
44508;SDS011;30214;52.246;14.408;2022-12-29T06:32:52;5.90;;;2.85;;
44508;SDS011;30214;52.246;14.408;2022-12-29T06:35:19;8.02;;;3.00;;
44508;SDS011;30214;52.246;14.408;2022-12-29T06:37:49;10.68;;;3.63;;
44508;SDS011;30214;52.246;14.408;2022-12-29T06:40:16;8.38;;;3.50;;
44508;SDS011;30214;52.246;14.408;2022-12-29T06:43:06;13.65;;;4.95;;
44508;SDS011;30214;52.246;14.408;2022-12-29T06:45:44;13.68;;;4.90;;
44508;SDS011;30214;52.246;14.408;2022-12-29T06:48:16;4.80;;;2.38;;
44508;SDS011;30214;52.246;14.408;2022-12-29T06:50:43;6.28;;;1.90;;
44508;SDS011;30214;52.246;14.408;2022-12-29T06:53:10;4.22;;;2.10;;
44508;SDS011;30214;52.246;14.408;2022-12-29T06:55:37;5.25;;;2.53;;
44508;SDS011;30214;52.246;14.408;2022-12-29T06:58:04;6.57;;;2.38;;
44508;SDS011;30214;52.246;14.408;2022-12-29T07:00:31;6.82;;;2.72;;
44508;SDS011;30214;52.246;14.408;2022-12-29T07:02:58;5.18;;;2.30;;
44508;SDS011;30214;52.246;14.408;2022-12-29T07:05:26;6.00;;;1.90;;
44508;SDS011;30214;52.246;14.408;2022-12-29T07:07:56;3.47;;;1.90;;
44508;SDS011;30214;52.246;14.408;2022-12-29T07:10:23;5.78;;;2.28;;
44508;SDS011;30214;52.246;14.408;2022-12-29T07:12:50;4.65;;;2.40;;
44508;SDS011;30214;52.246;14.408;2022-12-29T07:15:18;4.30;;;1.88;;
44508;SDS011;30214;52.246;14.408;2022-12-29T07:17:45;6.15;;;2.58;;
44508;SDS011;30214;52.246;14.408;2022-12-29T07:20:14;4.85;;;2.38;;
44508;SDS011;30214;52.246;14.408;2022-12-29T07:22:43;2.90;;;1.50;;
44508;SDS011;30214;52.246;14.408;2022-12-29T07:25:12;4.00;;;2.13;;
44508;SDS011;30214;52.246;14.408;2022-12-29T07:27:39;4.82;;;1.55;;
44508;SDS011;30214;52.246;14.408;2022-12-29T07:30:06;3.60;;;1.58;;
44508;SDS011;30214;52.246;14.408;2022-12-29T07:32:35;6.05;;;1.88;;
44508;SDS011;30214;52.246;14.408;2022-12-29T07:35:02;3.58;;;1.50;;
44508;SDS011;30214;52.246;14.408;2022-12-29T07:37:30;3.58;;;1.60;;
44508;SDS011;30214;52.246;14.408;2022-12-29T07:39:58;5.75;;;2.13;;
44508;SDS011;30214;52.246;14.408;2022-12-29T07:42:26;8.10;;;3.47;;
44508;SDS011;30214;52.246;14.408;2022-12-29T07:44:57;6.35;;;2.58;;
44508;SDS011;30214;52.246;14.408;2022-12-29T07:47:47;6.82;;;2.42;;
44508;SDS011;30214;52.246;14.408;2022-12-29T07:50:15;6.95;;;2.50;;
44508;SDS011;30214;52.246;14.408;2022-12-29T07:52:42;4.32;;;1.65;;
44508;SDS011;30214;52.246;14.408;2022-12-29T07:55:11;3.58;;;1.52;;
44508;SDS011;30214;52.246;14.408;2022-12-29T07:57:38;3.38;;;1.67;;
44508;SDS011;30214;52.246;14.408;2022-12-29T08:00:05;5.45;;;1.80;;
44508;SDS011;30214;52.246;14.408;2022-12-29T08:02:37;3.20;;;1.30;;
44508;SDS011;30214;52.246;14.408;2022-12-29T08:05:05;3.80;;;1.77;;
44508;SDS011;30214;52.246;14.408;2022-12-29T08:07:32;5.72;;;2.17;;
44508;SDS011;30214;52.246;14.408;2022-12-29T08:10:00;3.03;;;1.52;;
44508;SDS011;30214;52.246;14.408;2022-12-29T08:12:28;5.60;;;2.10;;
44508;SDS011;30214;52.246;14.408;2022-12-29T08:14:55;4.93;;;1.60;;
44508;SDS011;30214;52.246;14.408;2022-12-29T08:17:22;2.78;;;1.42;;
44508;SDS011;30214;52.246;14.408;2022-12-29T08:19:49;4.03;;;1.80;;
44508;SDS011;30214;52.246;14.408;2022-12-29T08:22:17;3.42;;;1.48;;
44508;SDS011;30214;52.246;14.408;2022-12-29T08:24:44;5.95;;;1.88;;
44508;SDS011;30214;52.246;14.408;2022-12-29T08:27:11;3.40;;;1.73;;
44508;SDS011;30214;52.246;14.408;2022-12-29T08:29:39;3.20;;;1.38;;
44508;SDS011;30214;52.246;14.408;2022-12-29T08:32:06;2.90;;;1.20;;
44508;SDS011;30214;52.246;14.408;2022-12-29T08:34:33;3.85;;;1.38;;
44508;SDS011;30214;52.246;14.408;2022-12-29T08:37:00;3.53;;;1.48;;
44508;SDS011;30214;52.246;14.408;2022-12-29T08:39:27;5.03;;;1.50;;
44508;SDS011;30214;52.246;14.408;2022-12-29T08:41:54;5.18;;;1.45;;
44508;SDS011;30214;52.246;14.408;2022-12-29T08:44:21;2.88;;;1.33;;
44508;SDS011;30214;52.246;14.408;2022-12-29T08:46:50;2.83;;;1.42;;
44508;SDS011;30214;52.246;14.408;2022-12-29T08:49:17;2.95;;;1.20;;
44508;SDS011;30214;52.246;14.408;2022-12-29T08:51:45;2.42;;;1.20;;
44508;SDS011;30214;52.246;14.408;2022-12-29T08:54:13;5.57;;;1.60;;
44508;SDS011;30214;52.246;14.408;2022-12-29T08:56:41;3.97;;;1.25;;
44508;SDS011;30214;52.246;14.408;2022-12-29T08:59:08;4.85;;;1.45;;
44508;SDS011;30214;52.246;14.408;2022-12-29T09:01:36;4.35;;;1.20;;
44508;SDS011;30214;52.246;14.408;2022-12-29T09:04:06;2.67;;;1.30;;
44508;SDS011;30214;52.246;14.408;2022-12-29T09:06:34;3.75;;;1.30;;
44508;SDS011;30214;52.246;14.408;2022-12-29T09:09:02;3.05;;;1.17;;
44508;SDS011;30214;52.246;14.408;2022-12-29T09:11:29;5.00;;;1.38;;
44508;SDS011;30214;52.246;14.408;2022-12-29T09:13:56;2.70;;;1.17;;
44508;SDS011;30214;52.246;14.408;2022-12-29T09:16:24;3.47;;;1.15;;
44508;SDS011;30214;52.246;14.408;2022-12-29T09:18:53;4.72;;;1.40;;
44508;SDS011;30214;52.246;14.408;2022-12-29T09:21:22;3.22;;;1.20;;
44508;SDS011;30214;52.246;14.408;2022-12-29T09:23:49;2.83;;;1.13;;
44508;SDS011;30214;52.246;14.408;2022-12-29T09:26:16;4.57;;;1.67;;
44508;SDS011;30214;52.246;14.408;2022-12-29T09:28:43;3.30;;;1.40;;
44508;SDS011;30214;52.246;14.408;2022-12-29T09:31:11;5.80;;;1.67;;
44508;SDS011;30214;52.246;14.408;2022-12-29T09:33:38;4.85;;;2.05;;
44508;SDS011;30214;52.246;14.408;2022-12-29T09:36:06;4.07;;;2.17;;
44508;SDS011;30214;52.246;14.408;2022-12-29T09:38:36;3.05;;;1.30;;
44508;SDS011;30214;52.246;14.408;2022-12-29T09:41:05;4.85;;;1.55;;
44508;SDS011;30214;52.246;14.408;2022-12-29T09:46:34;2.28;;;1.13;;
44508;SDS011;30214;52.246;14.408;2022-12-29T09:49:07;3.58;;;1.38;;
44508;SDS011;30214;52.246;14.408;2022-12-29T09:51:46;2.65;;;1.35;;
44508;SDS011;30214;52.246;14.408;2022-12-29T09:54:23;4.25;;;1.30;;
44508;SDS011;30214;52.246;14.408;2022-12-29T09:57:44;3.53;;;1.17;;
44508;SDS011;30214;52.246;14.408;2022-12-29T10:00:15;3.85;;;1.10;;
44508;SDS011;30214;52.246;14.408;2022-12-29T10:02:46;4.00;;;1.13;;
44508;SDS011;30214;52.246;14.408;2022-12-29T10:05:20;2.00;;;1.10;;
44508;SDS011;30214;52.246;14.408;2022-12-29T10:08:02;3.80;;;1.20;;
44508;SDS011;30214;52.246;14.408;2022-12-29T10:10:40;3.72;;;1.27;;
44508;SDS011;30214;52.246;14.408;2022-12-29T10:13:18;2.53;;;1.00;;
44508;SDS011;30214;52.246;14.408;2022-12-29T10:15:58;3.05;;;1.33;;
44508;SDS011;30214;52.246;14.408;2022-12-29T10:18:37;5.00;;;1.30;;
44508;SDS011;30214;52.246;14.408;2022-12-29T10:21:18;3.20;;;1.20;;
44508;SDS011;30214;52.246;14.408;2022-12-29T10:23:58;3.60;;;1.10;;
44508;SDS011;30214;52.246;14.408;2022-12-29T10:26:33;2.72;;;1.10;;
44508;SDS011;30214;52.246;14.408;2022-12-29T10:29:05;2.63;;;1.38;;
44508;SDS011;30214;52.246;14.408;2022-12-29T10:31:41;3.08;;;1.30;;
44508;SDS011;30214;52.246;14.408;2022-12-29T10:34:15;2.45;;;1.20;;
44508;SDS011;30214;52.246;14.408;2022-12-29T10:36:48;3.78;;;1.30;;
44508;SDS011;30214;52.246;14.408;2022-12-29T10:39:23;3.55;;;1.38;;
44508;SDS011;30214;52.246;14.408;2022-12-29T10:42:01;4.00;;;1.45;;
44508;SDS011;30214;52.246;14.408;2022-12-29T10:44:37;4.25;;;1.40;;
44508;SDS011;30214;52.246;14.408;2022-12-29T10:47:06;4.15;;;1.40;;
44508;SDS011;30214;52.246;14.408;2022-12-29T10:52:08;3.35;;;1.20;;
44508;SDS011;30214;52.246;14.408;2022-12-29T10:54:38;2.35;;;0.90;;
44508;SDS011;30214;52.246;14.408;2022-12-29T10:57:14;4.15;;;1.48;;
44508;SDS011;30214;52.246;14.408;2022-12-29T10:59:50;3.70;;;1.40;;
44508;SDS011;30214;52.246;14.408;2022-12-29T11:02:23;3.35;;;1.40;;
44508;SDS011;30214;52.246;14.408;2022-12-29T11:05:10;5.03;;;1.15;;
44508;SDS011;30214;52.246;14.408;2022-12-29T11:07:47;5.95;;;1.30;;
44508;SDS011;30214;52.246;14.408;2022-12-29T11:10:16;3.65;;;1.15;;
44508;SDS011;30214;52.246;14.408;2022-12-29T11:12:57;3.53;;;1.20;;
44508;SDS011;30214;52.246;14.408;2022-12-29T11:15:28;2.78;;;1.83;;
44508;SDS011;30214;52.246;14.408;2022-12-29T11:18:07;2.72;;;1.30;;
44508;SDS011;30214;52.246;14.408;2022-12-29T11:20:46;4.72;;;1.10;;
44508;SDS011;30214;52.246;14.408;2022-12-29T11:23:22;4.72;;;1.27;;
44508;SDS011;30214;52.246;14.408;2022-12-29T11:26:05;3.50;;;1.33;;
44508;SDS011;30214;52.246;14.408;2022-12-29T11:28:43;3.10;;;1.13;;
44508;SDS011;30214;52.246;14.408;2022-12-29T11:31:15;3.20;;;1.25;;
44508;SDS011;30214;52.246;14.408;2022-12-29T11:33:43;2.88;;;1.30;;
44508;SDS011;30214;52.246;14.408;2022-12-29T11:36:11;2.58;;;1.20;;
44508;SDS011;30214;52.246;14.408;2022-12-29T11:38:45;5.78;;;1.83;;
44508;SDS011;30214;52.246;14.408;2022-12-29T11:41:18;3.03;;;1.30;;
44508;SDS011;30214;52.246;14.408;2022-12-29T11:46:19;3.65;;;1.10;;
44508;SDS011;30214;52.246;14.408;2022-12-29T11:48:50;2.97;;;1.27;;
44508;SDS011;30214;52.246;14.408;2022-12-29T11:51:21;3.55;;;1.15;;
44508;SDS011;30214;52.246;14.408;2022-12-29T11:53:50;2.83;;;1.10;;
44508;SDS011;30214;52.246;14.408;2022-12-29T11:56:32;3.22;;;1.13;;
44508;SDS011;30214;52.246;14.408;2022-12-29T12:02:22;3.45;;;1.60;;
44508;SDS011;30214;52.246;14.408;2022-12-29T12:05:09;3.28;;;1.40;;
44508;SDS011;30214;52.246;14.408;2022-12-29T12:07:54;2.88;;;1.23;;
44508;SDS011;30214;52.246;14.408;2022-12-29T12:10:28;4.38;;;1.30;;
44508;SDS011;30214;52.246;14.408;2022-12-29T12:13:03;5.47;;;1.15;;
44508;SDS011;30214;52.246;14.408;2022-12-29T12:15:39;5.13;;;1.20;;
44508;SDS011;30214;52.246;14.408;2022-12-29T12:18:10;2.80;;;1.30;;
44508;SDS011;30214;52.246;14.408;2022-12-29T12:23:25;4.20;;;1.42;;
44508;SDS011;30214;52.246;14.408;2022-12-29T12:26:04;3.35;;;1.20;;
44508;SDS011;30214;52.246;14.408;2022-12-29T12:28:44;2.30;;;1.20;;
44508;SDS011;30214;52.246;14.408;2022-12-29T12:31:24;2.72;;;1.13;;
44508;SDS011;30214;52.246;14.408;2022-12-29T12:34:06;2.35;;;1.20;;
44508;SDS011;30214;52.246;14.408;2022-12-29T12:39:47;2.25;;;1.15;;
44508;SDS011;30214;52.246;14.408;2022-12-29T12:42:34;3.70;;;1.20;;
44508;SDS011;30214;52.246;14.408;2022-12-29T12:45:31;3.03;;;1.35;;
44508;SDS011;30214;52.246;14.408;2022-12-29T12:48:27;4.30;;;1.20;;
44508;SDS011;30214;52.246;14.408;2022-12-29T12:51:15;3.65;;;1.17;;
44508;SDS011;30214;52.246;14.408;2022-12-29T12:54:01;3.38;;;1.25;;
44508;SDS011;30214;52.246;14.408;2022-12-29T12:56:50;2.47;;;1.30;;
44508;SDS011;30214;52.246;14.408;2022-12-29T12:59:38;2.25;;;1.23;;
44508;SDS011;30214;52.246;14.408;2022-12-29T13:02:18;3.40;;;1.80;;
44508;SDS011;30214;52.246;14.408;2022-12-29T13:11:52;4.65;;;1.90;;
44508;SDS011;30214;52.246;14.408;2022-12-29T13:14:36;3.10;;;1.20;;
44508;SDS011;30214;52.246;14.408;2022-12-29T13:19:48;2.85;;;1.20;;
44508;SDS011;30214;52.246;14.408;2022-12-29T13:22:27;3.85;;;1.20;;
44508;SDS011;30214;52.246;14.408;2022-12-29T13:25:13;5.63;;;2.67;;
44508;SDS011;30214;52.246;14.408;2022-12-29T13:27:55;5.97;;;1.58;;
44508;SDS011;30214;52.246;14.408;2022-12-29T13:30:30;3.70;;;1.45;;
44508;SDS011;30214;52.246;14.408;2022-12-29T13:33:04;5.07;;;1.50;;
44508;SDS011;30214;52.246;14.408;2022-12-29T13:35:48;2.85;;;1.50;;
44508;SDS011;30214;52.246;14.408;2022-12-29T13:38:24;2.72;;;1.23;;
44508;SDS011;30214;52.246;14.408;2022-12-29T13:40:59;3.05;;;1.20;;
44508;SDS011;30214;52.246;14.408;2022-12-29T13:43:31;2.88;;;1.50;;
44508;SDS011;30214;52.246;14.408;2022-12-29T13:46:05;4.22;;;1.17;;
44508;SDS011;30214;52.246;14.408;2022-12-29T13:48:37;2.75;;;1.30;;
44508;SDS011;30214;52.246;14.408;2022-12-29T13:51:11;4.00;;;1.30;;
44508;SDS011;30214;52.246;14.408;2022-12-29T13:53:45;3.88;;;1.38;;
44508;SDS011;30214;52.246;14.408;2022-12-29T13:56:31;3.08;;;1.40;;
44508;SDS011;30214;52.246;14.408;2022-12-29T13:59:08;3.30;;;1.35;;
44508;SDS011;30214;52.246;14.408;2022-12-29T14:01:46;4.03;;;1.50;;
44508;SDS011;30214;52.246;14.408;2022-12-29T14:04:21;4.07;;;1.80;;
44508;SDS011;30214;52.246;14.408;2022-12-29T14:06:59;3.13;;;1.27;;
44508;SDS011;30214;52.246;14.408;2022-12-29T14:09:40;4.00;;;1.40;;
44508;SDS011;30214;52.246;14.408;2022-12-29T14:12:19;6.57;;;2.80;;
44508;SDS011;30214;52.246;14.408;2022-12-29T14:14:55;2.53;;;1.50;;
44508;SDS011;30214;52.246;14.408;2022-12-29T14:17:41;2.67;;;1.38;;
44508;SDS011;30214;52.246;14.408;2022-12-29T14:20:16;3.15;;;1.38;;
44508;SDS011;30214;52.246;14.408;2022-12-29T14:22:56;3.50;;;1.70;;
44508;SDS011;30214;52.246;14.408;2022-12-29T14:28:42;5.65;;;1.60;;
44508;SDS011;30214;52.246;14.408;2022-12-29T14:34:15;3.15;;;1.30;;
44508;SDS011;30214;52.246;14.408;2022-12-29T14:36:54;3.03;;;1.27;;
44508;SDS011;30214;52.246;14.408;2022-12-29T14:39:34;5.60;;;1.20;;
44508;SDS011;30214;52.246;14.408;2022-12-29T14:42:06;3.28;;;1.30;;
44508;SDS011;30214;52.246;14.408;2022-12-29T14:44:45;3.67;;;1.20;;
44508;SDS011;30214;52.246;14.408;2022-12-29T14:47:16;2.55;;;1.20;;
44508;SDS011;30214;52.246;14.408;2022-12-29T14:49:46;5.30;;;1.25;;
44508;SDS011;30214;52.246;14.408;2022-12-29T14:52:15;3.47;;;1.10;;
44508;SDS011;30214;52.246;14.408;2022-12-29T14:54:47;3.88;;;1.25;;
44508;SDS011;30214;52.246;14.408;2022-12-29T15:00:12;2.33;;;1.00;;
44508;SDS011;30214;52.246;14.408;2022-12-29T15:02:49;2.78;;;1.00;;
44508;SDS011;30214;52.246;14.408;2022-12-29T15:05:27;4.38;;;1.48;;
44508;SDS011;30214;52.246;14.408;2022-12-29T15:07:59;2.90;;;1.33;;
44508;SDS011;30214;52.246;14.408;2022-12-29T15:10:32;3.03;;;1.20;;
44508;SDS011;30214;52.246;14.408;2022-12-29T15:13:12;5.32;;;1.20;;
44508;SDS011;30214;52.246;14.408;2022-12-29T15:15:43;4.00;;;1.35;;
44508;SDS011;30214;52.246;14.408;2022-12-29T15:20:56;2.88;;;1.50;;
44508;SDS011;30214;52.246;14.408;2022-12-29T15:23:27;3.22;;;1.35;;
44508;SDS011;30214;52.246;14.408;2022-12-29T15:25:57;3.15;;;1.30;;
44508;SDS011;30214;52.246;14.408;2022-12-29T15:28:36;3.25;;;1.52;;
44508;SDS011;30214;52.246;14.408;2022-12-29T15:31:05;5.50;;;1.40;;
44508;SDS011;30214;52.246;14.408;2022-12-29T15:33:39;3.90;;;1.42;;
44508;SDS011;30214;52.246;14.408;2022-12-29T15:36:10;3.03;;;1.45;;
44508;SDS011;30214;52.246;14.408;2022-12-29T15:38:40;2.47;;;1.33;;
44508;SDS011;30214;52.246;14.408;2022-12-29T15:41:11;4.47;;;1.65;;
44508;SDS011;30214;52.246;14.408;2022-12-29T15:43:57;3.60;;;2.22;;
44508;SDS011;30214;52.246;14.408;2022-12-29T15:46:41;3.30;;;1.60;;
44508;SDS011;30214;52.246;14.408;2022-12-29T15:49:09;4.00;;;1.50;;
44508;SDS011;30214;52.246;14.408;2022-12-29T15:51:41;3.83;;;1.50;;
44508;SDS011;30214;52.246;14.408;2022-12-29T15:54:13;3.17;;;1.50;;
44508;SDS011;30214;52.246;14.408;2022-12-29T15:56:46;2.63;;;1.50;;
44508;SDS011;30214;52.246;14.408;2022-12-29T15:59:25;5.18;;;1.77;;
44508;SDS011;30214;52.246;14.408;2022-12-29T16:01:54;4.07;;;1.50;;
44508;SDS011;30214;52.246;14.408;2022-12-29T16:04:23;3.78;;;1.77;;
44508;SDS011;30214;52.246;14.408;2022-12-29T16:06:57;4.78;;;1.55;;
44508;SDS011;30214;52.246;14.408;2022-12-29T16:09:29;2.33;;;1.55;;
44508;SDS011;30214;52.246;14.408;2022-12-29T16:12:00;3.20;;;1.50;;
44508;SDS011;30214;52.246;14.408;2022-12-29T16:14:32;4.07;;;1.42;;